Time;durP1;ratioP1;P1;durP2;ratioP2;P2;SDS_P1;SDS_P2;PMS_P1;PMS_P2;Temp;Humidity;BMP_temperature;BMP_pressure;BME280_temperature;BME280_humidity;BME280_pressure;Samples;Min_cycle;Max_cycle;Signal;HPM_P1;HPM_P2
2023/12/04 00:00:39;;;;;;;38.88;19.05;;;1.60;99.90;;;;;;5066770;28;20351;-73
2023/12/04 00:03:05;;;;;;;39.00;17.95;;;1.60;99.90;;;;;;5066910;28;20096;-72
2023/12/04 00:05:30;;;;;;;41.97;18.75;;;1.60;99.90;;;;;;5067035;28;20111;-73
2023/12/04 00:07:56;;;;;;;36.05;16.70;;;1.60;99.90;;;;;;5049055;28;20028;-72
2023/12/04 00:10:21;;;;;;;33.03;17.20;;;1.60;99.90;;;;;;5057627;28;20045;-74
2023/12/04 00:12:47;;;;;;;38.65;18.05;;;1.60;99.90;;;;;;5066432;28;20024;-73
2023/12/04 00:15:13;;;;;;;37.45;18.63;;;1.60;99.90;;;;;;5066858;28;20035;-73
2023/12/04 00:17:39;;;;;;;32.00;16.23;;;1.60;99.90;;;;;;5066644;28;20116;-73
2023/12/04 00:20:09;;;;;;;35.53;16.80;;;1.60;99.90;;;;;;5061762;28;20107;-74
2023/12/04 00:22:36;;;;;;;36.00;17.42;;;1.60;99.90;;;;;;5066625;28;20016;-73
2023/12/04 00:25:03;;;;;;;38.38;17.83;;;1.60;99.90;;;;;;5052806;28;20021;-73
2023/12/04 00:27:29;;;;;;;39.58;18.85;;;1.60;99.90;;;;;;5066503;28;20450;-73
2023/12/04 00:29:55;;;;;;;35.50;17.48;;;1.60;99.90;;;;;;5066556;28;20025;-73
2023/12/04 00:32:20;;;;;;;35.95;16.42;;;1.60;99.90;;;;;;5048222;28;20068;-72
2023/12/04 00:34:46;;;;;;;36.28;18.33;;;1.60;99.90;;;;;;5066701;28;20032;-73
2023/12/04 00:37:12;;;;;;;34.63;16.42;;;1.60;99.90;;;;;;5066287;28;20024;-72
2023/12/04 00:39:38;;;;;;;34.78;18.35;;;1.60;99.90;;;;;;5034377;28;20039;-73
2023/12/04 00:42:04;;;;;;;33.92;15.85;;;1.60;99.90;;;;;;5066159;28;20044;-73
2023/12/04 00:44:29;;;;;;;32.60;15.70;;;1.60;99.90;;;;;;5066672;28;20025;-72
2023/12/04 00:46:55;;;;;;;35.60;16.77;;;1.60;99.90;;;;;;5066034;28;20032;-73
2023/12/04 00:49:21;;;;;;;33.75;16.85;;;1.60;99.90;;;;;;5066818;28;20028;-73
2023/12/04 00:51:47;;;;;;;31.85;15.68;;;1.60;99.90;;;;;;5048081;28;20111;-73
2023/12/04 00:54:12;;;;;;;31.02;15.00;;;1.70;99.90;;;;;;5066537;28;20020;-72
2023/12/04 00:56:39;;;;;;;28.10;14.57;;;1.70;99.90;;;;;;5065757;28;20039;-73
2023/12/04 00:59:06;;;;;;;32.03;16.50;;;1.70;99.90;;;;;;5066450;28;20740;-73
2023/12/04 01:01:32;;;;;;;34.67;15.82;;;1.60;99.90;;;;;;5065640;28;20024;-73
2023/12/04 01:03:59;;;;;;;31.08;14.68;;;1.60;99.90;;;;;;5066308;28;20021;-73
2023/12/04 01:06:25;;;;;;;33.25;16.85;;;1.60;99.90;;;;;;5064425;28;20027;-73
2023/12/04 01:08:53;;;;;;;31.30;16.58;;;1.70;99.90;;;;;;5064627;28;20029;-73
2023/12/04 01:11:21;;;;;;;29.33;15.07;;;1.60;99.90;;;;;;5064097;28;20055;-73
2023/12/04 01:13:47;;;;;;;30.63;15.45;;;1.60;99.90;;;;;;5064358;28;20024;-73
2023/12/04 01:16:13;;;;;;;30.15;15.95;;;1.60;99.90;;;;;;5046320;28;20394;-72
2023/12/04 01:18:38;;;;;;;31.90;16.13;;;1.60;99.90;;;;;;5064565;28;20099;-73
2023/12/04 01:21:04;;;;;;;29.08;14.43;;;1.60;99.90;;;;;;5051880;28;20020;-73
2023/12/04 01:23:30;;;;;;;31.00;15.60;;;1.60;99.90;;;;;;5065337;28;20031;-73
2023/12/04 01:25:55;;;;;;;30.95;14.63;;;1.60;99.90;;;;;;5065994;28;20029;-72
2023/12/04 01:28:21;;;;;;;29.23;14.00;;;1.60;99.90;;;;;;5065962;28;20028;-73
2023/12/04 01:30:46;;;;;;;28.67;15.02;;;1.60;99.90;;;;;;5056485;28;20028;-73
2023/12/04 01:33:12;;;;;;;26.52;13.93;;;1.70;99.90;;;;;;5047736;28;20548;-73
2023/12/04 01:35:38;;;;;;;28.77;15.02;;;1.70;99.90;;;;;;5065734;28;20028;-73
2023/12/04 01:38:03;;;;;;;31.50;15.30;;;1.70;99.90;;;;;;5064264;28;20016;-73
2023/12/04 01:40:29;;;;;;;29.48;15.20;;;1.70;99.90;;;;;;5053074;28;20064;-73
2023/12/04 01:42:54;;;;;;;26.50;13.85;;;1.70;99.90;;;;;;5066856;28;20107;-73
2023/12/04 01:45:20;;;;;;;28.40;15.40;;;1.70;99.90;;;;;;5069560;28;20053;-73
2023/12/04 01:47:47;;;;;;;31.85;14.02;;;1.70;99.90;;;;;;5069240;28;20021;-73
2023/12/04 01:50:13;;;;;;;27.95;13.93;;;1.70;99.90;;;;;;5070114;28;20020;-73
2023/12/04 01:52:40;;;;;;;26.50;14.57;;;1.70;99.90;;;;;;5068747;28;20512;-72
2023/12/04 01:55:08;;;;;;;28.60;14.02;;;1.70;99.90;;;;;;5069525;28;20025;-73
2023/12/04 01:57:34;;;;;;;28.48;14.27;;;1.80;99.90;;;;;;5068956;28;20040;-72
2023/12/04 02:00:00;;;;;;;28.10;14.02;;;1.70;99.90;;;;;;5069565;28;20492;-72
2023/12/04 02:02:27;;;;;;;26.30;14.23;;;1.70;99.90;;;;;;5069187;28;20016;-73
2023/12/04 02:04:56;;;;;;;26.88;14.32;;;1.80;99.90;;;;;;5069340;28;20048;-72
2023/12/04 02:07:22;;;;;;;22.70;11.55;;;1.70;99.90;;;;;;5068898;28;20029;-73
2023/12/04 02:09:48;;;;;;;30.20;14.93;;;1.70;99.90;;;;;;5068938;28;20029;-72
2023/12/04 02:12:14;;;;;;;28.13;14.25;;;1.70;99.90;;;;;;5058120;28;20031;-72
2023/12/04 02:14:39;;;;;;;24.98;12.82;;;1.70;99.90;;;;;;5068832;28;20020;-73
2023/12/04 02:17:06;;;;;;;29.35;14.82;;;1.70;99.90;;;;;;5068702;28;20036;-73
2023/12/04 02:19:32;;;;;;;28.02;14.10;;;1.70;99.90;;;;;;5069234;28;20659;-72
2023/12/04 02:21:58;;;;;;;24.67;12.85;;;1.70;99.90;;;;;;5068881;28;20024;-73
2023/12/04 02:24:24;;;;;;;26.98;13.32;;;1.80;99.90;;;;;;5068864;28;20035;-72
2023/12/04 02:27:01;;;;;;;27.20;13.63;;;1.70;99.90;;;;;;5068357;28;20429;-73
2023/12/04 02:29:33;;;;;;;27.45;13.05;;;1.70;99.90;;;;;;5067713;28;20119;-72
2023/12/04 02:32:03;;;;;;;26.73;13.73;;;1.80;99.90;;;;;;5068515;28;20020;-72
2023/12/04 02:34:32;;;;;;;26.15;13.25;;;1.70;99.90;;;;;;5068850;28;20028;-72
2023/12/04 02:36:59;;;;;;;27.23;13.13;;;1.70;99.90;;;;;;5054520;28;20020;-73
2023/12/04 02:39:25;;;;;;;22.48;12.85;;;1.70;99.90;;;;;;5055902;28;20505;-72
2023/12/04 02:41:51;;;;;;;22.60;11.43;;;1.70;99.90;;;;;;5066677;28;20051;-73
2023/12/04 02:44:16;;;;;;;27.33;14.18;;;1.70;99.90;;;;;;5068742;28;20025;-72
2023/12/04 02:46:42;;;;;;;23.85;12.15;;;1.70;99.90;;;;;;5068099;28;20021;-72
2023/12/04 02:49:08;;;;;;;23.88;12.45;;;1.70;99.90;;;;;;5068538;28;20040;-73
2023/12/04 02:51:34;;;;;;;25.90;13.60;;;1.70;99.90;;;;;;5068147;28;20445;-72
2023/12/04 02:53:59;;;;;;;26.58;13.13;;;1.70;99.90;;;;;;5067846;28;20421;-72
2023/12/04 02:56:25;;;;;;;24.77;11.82;;;1.70;99.90;;;;;;5068286;28;20060;-72
2023/12/04 02:58:51;;;;;;;24.15;12.88;;;1.70;99.90;;;;;;5067485;28;20020;-73
2023/12/04 03:01:16;;;;;;;18.75;10.27;;;1.80;99.90;;;;;;5068195;28;20013;-72
2023/12/04 03:03:42;;;;;;;23.15;12.10;;;1.80;99.90;;;;;;5066558;28;20052;-73
2023/12/04 03:06:08;;;;;;;25.83;13.05;;;1.80;99.90;;;;;;5066606;28;20025;-72
2023/12/04 03:08:33;;;;;;;25.83;13.52;;;1.80;99.90;;;;;;5066053;28;20078;-72
2023/12/04 03:11:00;;;;;;;24.50;12.40;;;1.80;99.90;;;;;;5066596;28;20039;-73
2023/12/04 03:13:26;;;;;;;18.15;10.32;;;1.80;99.90;;;;;;5066338;28;20052;-72
2023/12/04 03:15:52;;;;;;;21.75;12.00;;;1.80;99.90;;;;;;5066405;28;20311;-72
2023/12/04 03:18:18;;;;;;;24.65;12.15;;;1.90;99.90;;;;;;5066023;28;20071;-73
2023/12/04 03:20:43;;;;;;;22.75;11.80;;;1.80;99.90;;;;;;5066020;28;20021;-72
2023/12/04 03:23:09;;;;;;;25.80;12.00;;;1.80;99.90;;;;;;5065909;28;20490;-73
2023/12/04 03:25:35;;;;;;;22.10;11.35;;;1.80;99.90;;;;;;5066488;28;20114;-72
2023/12/04 03:28:00;;;;;;;21.23;11.38;;;1.80;99.90;;;;;;5066316;28;20811;-73
2023/12/04 03:30:26;;;;;;;22.40;11.73;;;1.80;99.90;;;;;;5065858;28;20086;-73
2023/12/04 03:32:51;;;;;;;21.95;11.63;;;1.80;99.90;;;;;;5065593;28;20028;-72
2023/12/04 03:35:17;;;;;;;24.70;12.43;;;1.80;99.90;;;;;;5066145;28;20024;-73
2023/12/04 03:37:43;;;;;;;20.90;11.07;;;1.80;99.90;;;;;;5067071;28;20075;-73
2023/12/04 03:40:09;;;;;;;22.48;11.32;;;1.90;99.90;;;;;;5053390;28;20040;-73
2023/12/04 03:42:34;;;;;;;19.38;10.82;;;1.80;99.90;;;;;;5067015;28;20034;-73
2023/12/04 03:45:00;;;;;;;21.65;11.27;;;1.90;99.90;;;;;;5067375;28;20555;-72
2023/12/04 03:47:25;;;;;;;21.30;11.27;;;1.80;99.90;;;;;;5066907;28;20024;-73
2023/12/04 03:49:51;;;;;;;19.63;11.35;;;1.80;99.90;;;;;;5066997;28;20519;-72
2023/12/04 03:52:16;;;;;;;20.77;11.70;;;1.80;99.90;;;;;;5066344;28;20036;-72
2023/12/04 03:54:42;;;;;;;20.02;11.98;;;1.80;99.90;;;;;;5066775;28;20025;-72
2023/12/04 03:57:08;;;;;;;20.10;10.95;;;1.80;99.90;;;;;;5066282;28;20028;-73
2023/12/04 03:59:34;;;;;;;20.73;11.80;;;1.80;99.90;;;;;;5067089;28;20032;-72
2023/12/04 04:01:59;;;;;;;21.35;11.48;;;1.80;99.90;;;;;;5066593;28;20710;-72
2023/12/04 04:04:25;;;;;;;20.15;11.85;;;1.80;99.90;;;;;;5066825;28;20016;-72
2023/12/04 04:06:51;;;;;;;21.05;11.18;;;1.80;99.90;;;;;;5065373;28;20277;-72
2023/12/04 04:09:16;;;;;;;18.05;10.43;;;1.80;99.90;;;;;;5066135;28;20029;-72
2023/12/04 04:11:42;;;;;;;20.33;11.45;;;1.80;99.90;;;;;;5066515;28;20017;-72
2023/12/04 04:14:08;;;;;;;20.05;10.45;;;1.80;99.90;;;;;;5066790;28;20043;-72
2023/12/04 04:16:33;;;;;;;17.40;9.68;;;1.80;99.90;;;;;;5066955;28;20028;-73
2023/12/04 04:18:59;;;;;;;19.52;10.70;;;1.80;99.90;;;;;;5066322;28;20078;-72
2023/12/04 04:21:25;;;;;;;17.67;9.48;;;1.80;99.90;;;;;;5066784;28;20032;-73
2023/12/04 04:23:50;;;;;;;17.67;9.40;;;1.80;99.90;;;;;;5066357;28;20028;-73
2023/12/04 04:26:16;;;;;;;20.52;10.80;;;1.80;99.90;;;;;;5066950;28;20028;-72
2023/12/04 04:28:41;;;;;;;15.65;8.40;;;1.80;99.90;;;;;;5048113;28;20033;-72
2023/12/04 04:31:07;;;;;;;19.13;11.10;;;1.80;99.90;;;;;;5066515;28;20029;-73
2023/12/04 04:33:33;;;;;;;15.73;9.15;;;1.80;99.90;;;;;;5066092;28;20021;-73
2023/12/04 04:35:58;;;;;;;16.70;10.02;;;1.70;99.90;;;;;;5066663;28;20025;-73
2023/12/04 04:38:24;;;;;;;18.90;9.80;;;1.80;99.90;;;;;;5062141;28;20453;-72
2023/12/04 04:40:51;;;;;;;16.17;9.18;;;1.80;99.90;;;;;;5056567;28;20208;-72
2023/12/04 04:43:17;;;;;;;15.90;9.43;;;1.80;99.90;;;;;;5066265;28;20381;-72
2023/12/04 04:45:43;;;;;;;21.08;10.63;;;1.80;99.90;;;;;;5066409;28;20024;-72
2023/12/04 04:48:09;;;;;;;14.82;8.52;;;1.80;99.90;;;;;;5066011;28;20032;-72
2023/12/04 04:50:34;;;;;;;13.98;7.95;;;1.80;99.90;;;;;;5066372;28;20025;-72
2023/12/04 04:53:00;;;;;;;18.52;9.35;;;1.80;99.90;;;;;;5066449;28;20512;-72
2023/12/04 04:55:26;;;;;;;16.85;9.25;;;1.80;99.90;;;;;;5066063;28;20047;-72
2023/12/04 04:57:51;;;;;;;17.00;9.73;;;1.80;99.90;;;;;;5066191;28;20044;-72
2023/12/04 05:00:18;;;;;;;16.67;9.02;;;1.80;99.90;;;;;;5066639;28;20013;-72
2023/12/04 05:02:43;;;;;;;15.45;8.75;;;1.80;99.90;;;;;;5066138;28;20016;-72
2023/12/04 05:05:09;;;;;;;13.43;7.63;;;1.80;99.90;;;;;;5066565;28;20394;-72
2023/12/04 05:07:34;;;;;;;19.40;10.52;;;1.80;99.90;;;;;;5065986;28;20142;-72
2023/12/04 05:10:00;;;;;;;19.58;10.00;;;1.80;99.90;;;;;;5066403;28;20536;-72
2023/12/04 05:12:26;;;;;;;18.58;10.45;;;1.80;99.90;;;;;;5065936;28;20029;-72
2023/12/04 05:14:51;;;;;;;16.52;9.60;;;1.80;99.90;;;;;;5066279;28;20170;-71
2023/12/04 05:17:17;;;;;;;19.17;10.70;;;1.80;99.90;;;;;;5068365;28;20020;-72
2023/12/04 05:19:43;;;;;;;17.38;9.02;;;1.80;99.90;;;;;;5070138;28;20024;-72
2023/12/04 05:22:09;;;;;;;18.27;10.38;;;1.80;99.90;;;;;;5070089;28;20059;-72
2023/12/04 05:24:35;;;;;;;16.50;9.10;;;1.80;99.90;;;;;;5070187;28;20466;-72
2023/12/04 05:27:02;;;;;;;19.63;10.43;;;1.80;99.90;;;;;;5069986;28;20884;-72
2023/12/04 05:29:28;;;;;;;18.00;9.63;;;1.80;99.90;;;;;;5069754;28;20028;-73
2023/12/04 05:31:53;;;;;;;15.70;9.27;;;1.80;99.90;;;;;;5069330;28;20031;-73
2023/12/04 05:34:19;;;;;;;19.23;10.68;;;1.80;99.90;;;;;;5068099;28;20024;-72
2023/12/04 05:36:44;;;;;;;14.77;8.27;;;1.80;99.90;;;;;;5067694;28;20079;-72
2023/12/04 05:39:10;;;;;;;15.98;9.48;;;1.80;99.90;;;;;;5067675;28;20025;-71
2023/12/04 05:41:36;;;;;;;17.13;10.55;;;1.70;99.90;;;;;;5071673;28;20028;-71
2023/12/04 05:44:01;;;;;;;15.93;9.23;;;1.70;99.90;;;;;;5067637;28;20025;-72
2023/12/04 05:46:27;;;;;;;14.68;8.80;;;1.70;99.90;;;;;;5068166;28;20033;-72
2023/12/04 05:48:53;;;;;;;17.48;9.27;;;1.70;99.90;;;;;;5067629;28;20028;-72
2023/12/04 05:51:18;;;;;;;15.57;9.27;;;1.70;99.90;;;;;;5067786;28;20027;-72
2023/12/04 05:53:44;;;;;;;17.30;9.95;;;1.70;99.90;;;;;;5067288;28;20106;-73
2023/12/04 05:56:10;;;;;;;14.70;8.57;;;1.70;99.90;;;;;;5067731;28;20517;-72
2023/12/04 05:58:36;;;;;;;16.48;8.70;;;1.70;99.90;;;;;;5067572;28;20174;-72
2023/12/04 06:01:02;;;;;;;14.95;9.38;;;1.70;99.90;;;;;;5071356;28;20481;-72
2023/12/04 06:03:28;;;;;;;14.82;8.45;;;1.70;99.90;;;;;;5069373;28;20166;-72
2023/12/04 06:05:53;;;;;;;16.67;9.18;;;1.70;99.90;;;;;;5069060;28;20012;-72
2023/12/04 06:08:19;;;;;;;14.68;8.70;;;1.70;99.90;;;;;;5068694;28;20063;-72
2023/12/04 06:10:46;;;;;;;17.25;9.27;;;1.70;99.90;;;;;;5068973;28;20031;-72
2023/12/04 06:13:11;;;;;;;17.45;9.35;;;1.70;99.90;;;;;;5068517;28;20028;-72
2023/12/04 06:15:37;;;;;;;13.13;7.80;;;1.70;99.90;;;;;;5068984;28;20036;-72
2023/12/04 06:18:03;;;;;;;14.52;8.57;;;1.70;99.90;;;;;;5072983;28;20024;-73
2023/12/04 06:20:28;;;;;;;15.00;8.50;;;1.70;99.90;;;;;;5078545;28;20023;-72
2023/12/04 06:22:54;;;;;;;17.10;9.23;;;1.70;99.90;;;;;;5068372;28;20028;-72
2023/12/04 06:25:20;;;;;;;13.38;7.93;;;1.80;99.90;;;;;;5069034;28;20012;-73
2023/12/04 06:27:46;;;;;;;15.23;8.68;;;1.70;99.90;;;;;;5067241;28;20505;-72
2023/12/04 06:30:12;;;;;;;13.57;7.05;;;1.70;99.90;;;;;;5068589;28;20078;-72
2023/12/04 06:32:38;;;;;;;13.32;7.82;;;1.70;99.90;;;;;;5068168;28;20017;-72
2023/12/04 06:35:04;;;;;;;13.57;7.93;;;1.70;99.90;;;;;;5068122;28;20048;-72
2023/12/04 06:37:31;;;;;;;14.27;8.35;;;1.80;99.90;;;;;;5067676;28;20055;-72
2023/12/04 06:39:59;;;;;;;12.45;7.75;;;1.80;99.90;;;;;;5050325;28;20056;-73
2023/12/04 06:42:25;;;;;;;13.35;7.78;;;1.80;99.90;;;;;;5046698;28;20060;-72
2023/12/04 06:44:51;;;;;;;14.55;7.88;;;1.80;99.90;;;;;;5046991;28;20120;-72
2023/12/04 06:47:22;;;;;;;13.57;7.70;;;1.80;99.90;;;;;;5046880;28;20751;-72
2023/12/04 06:49:47;;;;;;;14.48;7.53;;;1.80;99.90;;;;;;5046953;28;20156;-72
2023/12/04 06:52:13;;;;;;;14.05;7.38;;;1.80;99.90;;;;;;5046763;28;20557;-72
2023/12/04 06:54:39;;;;;;;13.75;7.65;;;1.80;99.90;;;;;;5046682;28;20029;-72
2023/12/04 06:57:04;;;;;;;14.77;8.02;;;1.80;99.90;;;;;;5046454;28;20079;-72
2023/12/04 06:59:30;;;;;;;13.75;7.28;;;1.80;99.90;;;;;;5046384;28;20422;-72
2023/12/04 07:01:56;;;;;;;11.52;6.63;;;1.80;99.90;;;;;;5046445;28;20021;-72
2023/12/04 07:04:21;;;;;;;14.35;7.40;;;1.80;99.90;;;;;;5047466;28;20024;-72
2023/12/04 07:06:48;;;;;;;14.30;8.23;;;1.80;99.90;;;;;;5048210;28;20021;-71
2023/12/04 07:09:14;;;;;;;12.85;7.40;;;1.80;99.90;;;;;;5047886;28;20066;-72
2023/12/04 07:11:40;;;;;;;12.00;6.85;;;1.80;99.90;;;;;;5047957;28;20032;-72
2023/12/04 07:14:06;;;;;;;14.27;7.93;;;1.90;99.90;;;;;;5047833;28;20025;-72
2023/12/04 07:16:39;;;;;;;14.07;7.43;;;1.90;99.90;;;;;;5047934;28;20021;-72
2023/12/04 07:19:05;;;;;;;12.48;7.25;;;1.80;99.90;;;;;;5047587;28;20021;-71
2023/12/04 07:21:30;;;;;;;11.98;6.60;;;1.80;99.90;;;;;;5047867;28;20029;-72
2023/12/04 07:23:56;;;;;;;11.48;7.03;;;1.90;99.90;;;;;;5047615;28;20382;-73
2023/12/04 07:26:21;;;;;;;13.75;7.25;;;1.90;99.90;;;;;;5047703;28;20402;-71
2023/12/04 07:28:47;;;;;;;12.10;7.20;;;1.90;99.90;;;;;;5047559;28;20076;-71
2023/12/04 07:31:13;;;;;;;10.70;6.15;;;1.80;99.90;;;;;;5045308;28;20095;-72
2023/12/04 07:33:38;;;;;;;14.63;6.75;;;1.80;99.90;;;;;;5047034;28;20414;-71
2023/12/04 07:36:04;;;;;;;13.88;7.45;;;1.90;99.90;;;;;;5047700;28;20037;-72
2023/12/04 07:38:30;;;;;;;11.27;6.80;;;1.90;99.90;;;;;;5047261;28;20024;-72
2023/12/04 07:40:56;;;;;;;11.13;6.72;;;1.90;99.90;;;;;;5071669;28;20044;-71
2023/12/04 07:43:21;;;;;;;11.68;6.38;;;1.90;99.90;;;;;;5054791;28;20021;-71
2023/12/04 07:45:47;;;;;;;11.25;6.35;;;1.90;99.90;;;;;;5077823;28;20028;-71
2023/12/04 07:48:12;;;;;;;11.68;6.80;;;1.90;99.90;;;;;;5064901;28;20032;-71
2023/12/04 07:50:38;;;;;;;11.07;6.40;;;1.90;99.90;;;;;;5069041;28;20023;-71
2023/12/04 07:53:05;;;;;;;11.95;6.65;;;1.90;99.90;;;;;;5066652;28;20032;-71
2023/12/04 07:55:31;;;;;;;12.45;6.60;;;1.90;99.90;;;;;;5081097;28;20086;-71
2023/12/04 07:57:56;;;;;;;11.43;6.55;;;1.90;99.90;;;;;;5073990;28;20008;-71
2023/12/04 08:00:26;;;;;;;12.65;6.63;;;1.90;99.90;;;;;;5074088;28;20079;-72
2023/12/04 08:02:51;;;;;;;11.82;6.90;;;1.90;99.90;;;;;;5064616;28;20012;-71
2023/12/04 08:05:17;;;;;;;12.25;7.40;;;1.90;99.90;;;;;;5066692;28;20020;-71
2023/12/04 08:07:43;;;;;;;13.60;7.80;;;1.90;99.90;;;;;;5073866;28;20024;-71
2023/12/04 08:10:08;;;;;;;13.15;7.25;;;1.90;99.90;;;;;;5067700;28;20021;-72
2023/12/04 08:12:34;;;;;;;10.95;6.22;;;1.90;99.90;;;;;;5062697;28;20187;-71
2023/12/04 08:15:01;;;;;;;11.75;6.55;;;1.90;99.90;;;;;;5066625;28;20025;-71
2023/12/04 08:17:27;;;;;;;11.75;6.70;;;2.00;99.90;;;;;;5066319;28;20020;-71
2023/12/04 08:19:54;;;;;;;12.40;6.80;;;2.00;99.90;;;;;;5066282;28;20048;-71
2023/12/04 08:22:19;;;;;;;12.27;7.18;;;2.00;99.90;;;;;;5066097;28;20393;-71
2023/12/04 08:24:45;;;;;;;12.20;7.20;;;2.00;99.90;;;;;;5065940;28;20028;-71
2023/12/04 08:27:11;;;;;;;11.68;6.30;;;2.00;99.90;;;;;;5075107;28;20032;-71
2023/12/04 08:29:36;;;;;;;12.25;6.60;;;2.00;99.90;;;;;;5065409;28;20861;-71
2023/12/04 08:32:02;;;;;;;13.25;7.40;;;2.00;99.90;;;;;;5065680;28;20039;-71
2023/12/04 08:34:28;;;;;;;13.40;7.53;;;2.10;99.90;;;;;;5065841;28;20021;-71
2023/12/04 08:36:53;;;;;;;11.82;6.53;;;2.10;99.90;;;;;;5046583;28;20029;-71
2023/12/04 08:39:19;;;;;;;13.95;6.75;;;2.10;99.90;;;;;;5077465;28;20393;-71
2023/12/04 08:41:47;;;;;;;11.43;6.88;;;2.10;99.90;;;;;;5067690;28;20478;-71
2023/12/04 08:44:13;;;;;;;12.30;6.50;;;2.10;99.90;;;;;;5066307;28;20031;-71
2023/12/04 08:46:39;;;;;;;10.90;6.43;;;2.10;99.90;;;;;;5070318;28;20094;-71
2023/12/04 08:49:05;;;;;;;10.73;7.30;;;2.10;99.90;;;;;;5051944;28;20465;-71
2023/12/04 08:51:31;;;;;;;11.85;6.90;;;2.10;99.90;;;;;;5072919;28;20035;-70
2023/12/04 08:53:56;;;;;;;12.52;6.97;;;2.10;99.90;;;;;;5076574;28;20029;-71
2023/12/04 08:56:23;;;;;;;11.18;7.15;;;2.10;99.90;;;;;;5070072;28;20059;-70
2023/12/04 08:58:50;;;;;;;10.88;6.53;;;2.10;99.90;;;;;;5069747;28;20028;-71
2023/12/04 09:01:16;;;;;;;12.23;7.15;;;2.10;99.90;;;;;;5072246;28;20020;-71
2023/12/04 09:03:41;;;;;;;14.27;7.28;;;2.20;99.90;;;;;;5069762;28;20020;-71
2023/12/04 09:06:07;;;;;;;11.65;7.20;;;2.20;99.90;;;;;;5067942;28;21430;-70
2023/12/04 09:08:34;;;;;;;10.52;6.22;;;2.20;99.90;;;;;;5070163;28;20119;-71
2023/12/04 09:10:59;;;;;;;13.55;7.13;;;2.20;99.90;;;;;;5069768;28;20017;-71
2023/12/04 09:13:25;;;;;;;11.80;6.53;;;2.20;99.90;;;;;;5069924;28;20035;-71
2023/12/04 09:15:51;;;;;;;12.23;7.55;;;2.20;99.90;;;;;;5070207;28;20052;-70
2023/12/04 09:18:17;;;;;;;13.10;7.05;;;2.20;99.90;;;;;;5069397;28;20025;-71
2023/12/04 09:20:43;;;;;;;11.88;7.07;;;2.20;99.90;;;;;;5069017;28;20020;-71
2023/12/04 09:23:09;;;;;;;11.57;6.60;;;2.30;99.90;;;;;;5073566;28;20024;-71
2023/12/04 09:25:35;;;;;;;12.27;7.30;;;2.30;99.90;;;;;;5074133;28;20020;-71
2023/12/04 09:28:01;;;;;;;12.35;6.45;;;2.30;99.90;;;;;;5069374;28;20025;-71
2023/12/04 09:30:26;;;;;;;13.32;7.20;;;2.30;99.90;;;;;;5069755;28;20021;-71
2023/12/04 09:32:52;;;;;;;10.85;6.80;;;2.30;99.90;;;;;;5069532;28;20516;-71
2023/12/04 09:35:18;;;;;;;12.38;6.72;;;2.30;99.90;;;;;;5069274;28;20108;-71
2023/12/04 09:37:45;;;;;;;12.52;7.28;;;2.30;99.90;;;;;;5073437;28;20030;-72
2023/12/04 09:40:11;;;;;;;12.70;7.43;;;2.40;99.90;;;;;;5069216;28;20118;-71
2023/12/04 09:42:39;;;;;;;11.77;7.13;;;2.40;99.90;;;;;;5078525;28;20023;-71
2023/12/04 09:45:07;;;;;;;11.25;6.60;;;2.40;99.90;;;;;;5072265;28;20149;-71
2023/12/04 09:47:34;;;;;;;11.98;6.53;;;2.40;99.90;;;;;;5068648;28;20444;-71
2023/12/04 09:50:00;;;;;;;11.38;6.80;;;2.50;99.90;;;;;;5068899;28;20020;-71
2023/12/04 09:52:28;;;;;;;14.07;7.05;;;2.50;99.90;;;;;;5068928;28;20557;-71
2023/12/04 09:54:53;;;;;;;11.88;6.85;;;2.50;99.90;;;;;;5070099;28;20165;-72
2023/12/04 09:57:21;;;;;;;14.93;7.53;;;2.50;99.90;;;;;;5070262;28;20407;-71
2023/12/04 09:59:48;;;;;;;13.68;7.78;;;2.50;99.90;;;;;;5066179;28;20028;-72
2023/12/04 10:02:14;;;;;;;14.00;7.82;;;2.60;99.90;;;;;;5068291;28;20028;-71
2023/12/04 10:04:41;;;;;;;12.55;7.72;;;2.60;99.90;;;;;;5073738;28;20085;-71
2023/12/04 10:07:07;;;;;;;11.95;7.00;;;2.60;99.90;;;;;;5069096;28;20056;-71
2023/12/04 10:09:32;;;;;;;14.25;7.95;;;2.60;99.90;;;;;;5068143;28;20064;-72
2023/12/04 10:11:59;;;;;;;13.27;7.47;;;2.70;99.90;;;;;;5068905;28;20032;-72
2023/12/04 10:14:25;;;;;;;12.82;7.03;;;2.70;99.90;;;;;;5068535;28;20032;-71
2023/12/04 10:16:53;;;;;;;12.90;7.50;;;2.70;99.90;;;;;;5069357;28;20658;-71
2023/12/04 10:19:26;;;;;;;11.52;6.43;;;2.60;99.90;;;;;;5071059;28;20386;-71
2023/12/04 10:21:52;;;;;;;12.30;7.03;;;2.70;99.90;;;;;;5068472;28;20356;-71
2023/12/04 10:24:35;;;;;;;18.55;7.85;;;2.70;99.90;;;;;;5068407;28;20090;-71
2023/12/04 10:27:11;;;;;;;15.68;8.23;;;2.70;99.90;;;;;;5066532;28;20024;-70
2023/12/04 10:29:42;;;;;;;13.45;7.70;;;2.70;99.90;;;;;;5069140;28;20066;-71
2023/12/04 10:32:08;;;;;;;12.10;7.55;;;2.80;99.90;;;;;;5054898;28;20027;-71
2023/12/04 10:34:34;;;;;;;12.02;7.47;;;2.80;99.90;;;;;;5068115;28;20393;-71
2023/12/04 10:36:59;;;;;;;12.25;7.50;;;2.80;99.90;;;;;;5068616;28;20124;-71
2023/12/04 10:39:28;;;;;;;12.73;7.88;;;2.80;99.90;;;;;;5070251;28;20021;-72
2023/12/04 10:42:03;;;;;;;15.40;8.50;;;2.80;99.90;;;;;;5061305;28;20013;-72
2023/12/04 10:44:32;;;;;;;11.70;7.18;;;2.80;99.90;;;;;;5056152;28;20398;-71
2023/12/04 10:47:01;;;;;;;11.95;7.35;;;2.80;99.90;;;;;;5059566;28;20107;-71
2023/12/04 10:49:28;;;;;;;10.82;6.93;;;2.80;99.90;;;;;;5057094;28;20218;-71
2023/12/04 10:51:57;;;;;;;14.23;7.95;;;2.80;99.90;;;;;;5047380;28;20029;-71
2023/12/04 10:54:23;;;;;;;10.50;6.65;;;2.80;99.90;;;;;;5061291;28;20036;-71
2023/12/04 10:56:52;;;;;;;12.45;8.27;;;2.80;99.90;;;;;;5049045;28;20139;-71
2023/12/04 10:59:24;;;;;;;12.57;7.15;;;2.80;99.90;;;;;;5045448;28;20028;-72
2023/12/04 11:01:54;;;;;;;13.20;8.18;;;2.80;99.90;;;;;;5053787;28;20402;-71
2023/12/04 11:04:23;;;;;;;11.40;6.90;;;2.80;99.90;;;;;;5044392;28;20021;-71
2023/12/04 11:06:52;;;;;;;11.65;7.05;;;2.80;99.90;;;;;;5047286;28;20040;-72
2023/12/04 11:09:20;;;;;;;11.98;7.32;;;2.80;99.90;;;;;;5052588;28;20017;-72
2023/12/04 11:11:51;;;;;;;12.10;7.60;;;2.90;99.90;;;;;;5042215;28;20052;-72
2023/12/04 11:14:22;;;;;;;12.75;7.50;;;2.90;99.90;;;;;;5041343;28;20111;-72
2023/12/04 11:16:54;;;;;;;13.35;7.28;;;2.80;99.90;;;;;;5062932;28;20035;-72
2023/12/04 11:19:51;;;;;;;13.52;7.97;;;2.80;99.90;;;;;;5060609;28;20060;-72
2023/12/04 11:22:20;;;;;;;14.00;8.02;;;2.90;99.90;;;;;;5046830;28;20020;-72
2023/12/04 11:24:48;;;;;;;12.70;7.78;;;2.90;99.90;;;;;;5049141;28;20052;-72
2023/12/04 11:27:16;;;;;;;11.25;6.88;;;2.90;99.90;;;;;;5058949;28;20036;-72
2023/12/04 11:29:43;;;;;;;13.88;7.53;;;2.90;99.90;;;;;;5062229;28;20370;-72
2023/12/04 11:32:16;;;;;;;12.75;7.72;;;2.90;99.90;;;;;;5047503;28;20033;-73
2023/12/04 11:34:55;;;;;;;13.75;8.45;;;2.90;99.90;;;;;;5057548;28;20031;-72
2023/12/04 11:37:23;;;;;;;11.35;7.53;;;2.90;99.90;;;;;;5054279;28;20039;-72
2023/12/04 11:39:50;;;;;;;10.82;6.88;;;2.90;99.90;;;;;;5026801;28;20041;-73
2023/12/04 11:42:25;;;;;;;12.93;8.20;;;2.90;99.90;;;;;;5045480;28;20037;-72
2023/12/04 11:44:57;;;;;;;12.38;6.72;;;2.90;99.90;;;;;;5044783;28;20033;-73
2023/12/04 11:47:23;;;;;;;12.85;7.85;;;2.90;99.90;;;;;;5046023;28;20813;-72
2023/12/04 11:49:49;;;;;;;13.38;7.78;;;2.90;99.90;;;;;;5045294;28;20120;-73
2023/12/04 11:52:15;;;;;;;12.88;8.00;;;2.90;99.90;;;;;;5045980;28;20025;-72
2023/12/04 11:55:06;;;;;;;11.98;7.63;;;2.90;99.90;;;;;;5045533;28;20067;-72
2023/12/04 11:57:36;;;;;;;12.43;7.55;;;2.90;99.90;;;;;;5042832;28;20033;-72
2023/12/04 12:00:22;;;;;;;10.75;6.75;;;2.90;99.90;;;;;;5043291;28;20029;-72
2023/12/04 12:02:53;;;;;;;12.60;7.25;;;2.90;99.90;;;;;;5043137;28;20020;-73
2023/12/04 12:05:23;;;;;;;13.27;7.63;;;2.90;99.90;;;;;;5040472;28;20139;-72
2023/12/04 12:07:49;;;;;;;12.55;6.60;;;3.00;99.90;;;;;;5044966;28;20056;-72
2023/12/04 12:10:18;;;;;;;12.48;6.90;;;3.00;99.90;;;;;;5043424;28;20121;-72
2023/12/04 12:12:44;;;;;;;13.27;7.97;;;3.00;99.90;;;;;;5043384;28;20025;-72
2023/12/04 12:15:10;;;;;;;10.60;6.95;;;3.00;99.90;;;;;;5045907;28;20017;-72
2023/12/04 12:17:40;;;;;;;11.95;7.43;;;3.00;99.90;;;;;;5045672;28;20098;-72
2023/12/04 12:20:08;;;;;;;11.70;6.65;;;3.00;99.90;;;;;;5046225;28;20474;-72
2023/12/04 12:22:37;;;;;;;11.82;6.65;;;2.90;99.90;;;;;;5042996;28;20017;-72
2023/12/04 12:25:22;;;;;;;12.35;7.43;;;2.90;99.90;;;;;;5026156;28;20021;-72
2023/12/04 12:27:48;;;;;;;11.30;7.15;;;2.90;99.90;;;;;;5040568;28;20028;-72
2023/12/04 12:30:14;;;;;;;13.95;8.18;;;2.90;99.90;;;;;;5045622;28;20036;-72
2023/12/04 12:32:39;;;;;;;12.45;7.78;;;2.90;99.90;;;;;;5046093;28;20024;-72
2023/12/04 12:35:08;;;;;;;10.07;6.07;;;2.90;99.90;;;;;;5044391;28;20033;-72
2023/12/04 12:37:34;;;;;;;13.35;8.57;;;2.90;99.90;;;;;;5045382;28;20040;-73
2023/12/04 12:40:00;;;;;;;13.27;8.27;;;2.90;99.90;;;;;;5048765;28;20114;-73